»·PEaware :: N664PB KSNA-KBUR

N664PB :: KSNA-KBUR

FLIGHT INFORMATION

Flight Status: Arrived
Operator: Privately registered:
United States
More flights under this callsign
Pilot: Anthony T. (14924)
Aircraft: CESSNA 182 SKYLANE
(C182)
More flights by this aircraft type
Origin: KSNA John Wayne-Orange Co
United States
Destination: KBUR Bob Hope-Burbank
United States
More flights between these airports :: More routes between these airports
Route: +SLI V23 POPPR SMO125R SMO SMO311R SILEX
File this flight plan on PilotEdge
Remarks: I-3
Altitude:
(Current/Filed)
4,000ft
Speed:
(Current/Filed)
130kts
Departed: 11-Oct-18 05:26 PM
Arrived: 11-Oct-18 06:07 PM
Distance/Time
Traveled:
40nm/0:40
Distance/Time
To Go:
Arrived

Flight Plot

Page will automatically refresh every two minutes.


Map Options




Map Legend


Flown Route
Filed Route
Departure Airport
Arrival Airport
Navaid (VOR, NDB)
Fix

Horizontal Profiles

Position Reports

Time Latitude Longitude Heading Altitude Ground
Speed
11-Oct-18 17:03 33.671636 -117.873574 21 59ft 0kts
11-Oct-18 17:04 33.671636 -117.873574 21 59ft 0kts
11-Oct-18 17:05 33.671636 -117.873574 21 59ft 0kts
11-Oct-18 17:06 33.671636 -117.873574 21 59ft 0kts
11-Oct-18 17:07 33.671636 -117.873574 21 59ft 0kts
11-Oct-18 17:08 33.671636 -117.873574 21 59ft 0kts
11-Oct-18 17:09 33.671636 -117.873574 21 59ft 0kts
11-Oct-18 17:10 33.671636 -117.873574 21 59ft 0kts
11-Oct-18 17:11 33.671636 -117.873574 21 59ft 0kts
11-Oct-18 17:12 33.671636 -117.873574 21 59ft 0kts
11-Oct-18 17:13 33.671636 -117.873574 21 59ft 0kts
11-Oct-18 17:14 33.671636 -117.873574 21 59ft 0kts
11-Oct-18 17:15 33.671636 -117.873574 21 59ft 0kts
11-Oct-18 17:16 33.671636 -117.873574 21 59ft 0kts
11-Oct-18 17:17 33.671636 -117.873574 21 59ft 0kts
11-Oct-18 17:18 33.671636 -117.873574 21 59ft 0kts
11-Oct-18 17:19 33.671636 -117.873574 21 59ft 0kts
11-Oct-18 17:20 33.671636 -117.873574 21 59ft 0kts
11-Oct-18 17:21 33.671662 -117.873563 19 59ft 3kts
11-Oct-18 17:22 33.677125 -117.869448 27 59ft 18kts
11-Oct-18 17:23 33.680335 -117.867575 27 59ft 11kts
11-Oct-18 17:24 33.681249 -117.866560 106 59ft 0kts
11-Oct-18 17:25 33.681249 -117.866560 105 59ft 0kts
11-Oct-18 17:26 33.681249 -117.866560 105 59ft 0kts
11-Oct-18 17:27 33.681246 -117.866549 105 59ft 1kts
11-Oct-18 17:28 33.670267 -117.872508 208 406ft 89kts
11-Oct-18 17:29 33.654187 -117.896027 231 1467ft 110kts
11-Oct-18 17:30 33.633915 -117.928443 234 2014ft 144kts
11-Oct-18 17:31 33.607808 -117.968981 231 1950ft 158kts
11-Oct-18 17:32 33.582357 -118.011428 233 1917ft 154kts
11-Oct-18 17:33 33.559120 -118.052460 237 2248ft 126kts
11-Oct-18 17:34 33.557751 -118.080612 331 3301ft 112kts
11-Oct-18 17:35 33.584221 -118.097187 331 4074ft 128kts
11-Oct-18 17:36 33.618474 -118.118046 332 4081ft 133kts
11-Oct-18 17:37 33.652140 -118.140506 328 3914ft 140kts
11-Oct-18 17:38 33.685686 -118.161640 331 4064ft 127kts
11-Oct-18 17:39 33.716474 -118.181622 331 4109ft 133kts
11-Oct-18 17:40 33.745611 -118.200409 331 4080ft 136kts
11-Oct-18 17:41 33.774390 -118.218880 331 4079ft 136kts
11-Oct-18 17:42 33.776497 -118.220233 331 4079ft 136kts
11-Oct-18 17:43 33.803781 -118.237725 331 4075ft 137kts
11-Oct-18 17:44 33.831021 -118.255158 331 4196ft 133kts
11-Oct-18 17:45 33.869695 -118.279975 331 4193ft 136kts
11-Oct-18 17:46 33.897703 -118.297948 331 4190ft 137kts
11-Oct-18 17:47 33.925412 -118.336191 292 4193ft 136kts
11-Oct-18 17:48 33.936436 -118.368998 292 4189ft 132kts
11-Oct-18 17:49 33.944905 -118.394237 291 4193ft 130kts
11-Oct-18 17:50 33.956127 -118.427701 292 4188ft 128kts
11-Oct-18 17:51 33.976143 -118.468922 324 4182ft 128kts
11-Oct-18 17:52 34.006909 -118.462894 32 4207ft 127kts
11-Oct-18 17:53 34.032705 -118.460427 324 4184ft 116kts
11-Oct-18 17:54 34.061596 -118.487296 321 4181ft 111kts
11-Oct-18 17:55 34.081499 -118.506044 322 4181ft 111kts
11-Oct-18 17:56 34.103834 -118.527079 321 4204ft 108kts
11-Oct-18 17:57 34.126116 -118.548063 322 4223ft 109kts
11-Oct-18 17:58 34.150401 -118.570942 322 4187ft 113kts
11-Oct-18 17:59 34.176150 -118.595275 322 3892ft 128kts
11-Oct-18 18:00 34.206229 -118.597587 56 3408ft 130kts
11-Oct-18 18:01 34.206035 -118.557765 109 3134ft 108kts
11-Oct-18 18:02 34.199096 -118.528410 96 3136ft 94kts
11-Oct-18 18:03 34.198280 -118.506008 90 3138ft 93kts
11-Oct-18 18:04 34.198560 -118.483718 85 2807ft 106kts
11-Oct-18 18:05 34.198196 -118.453419 91 2240ft 88kts
11-Oct-18 18:06 34.198126 -118.427809 89 1861ft 99kts
11-Oct-18 18:07 34.198222 -118.394484 92 1291ft 93kts
11-Oct-18 18:08 34.197852 -118.365528 90 797ft 73kts
11-Oct-18 18:09 34.198527 -118.355177 24 780ft 12kts
11-Oct-18 18:10 34.198648 -118.355091 36 780ft 0kts
11-Oct-18 18:11 34.200114 -118.358241 343 780ft 35kts
11-Oct-18 18:12 34.201720 -118.360146 243 780ft 0kts
11-Oct-18 18:13 34.201720 -118.360146 243 780ft 0kts
11-Oct-18 18:14 34.201720 -118.360146 243 780ft 0kts

Navigation Log

Ident Type
Flight plan parsing failed, navigation log unavailable